Time;durP1;ratioP1;P1;durP2;ratioP2;P2;SDS_P1;SDS_P2;PMS_P1;PMS_P2;Temp;Humidity;BMP_temperature;BMP_pressure;BME280_temperature;BME280_humidity;BME280_pressure;Samples;Min_cycle;Max_cycle;Signal;HPM_P1;HPM_P2
2023/10/16 00:00:32;;;;;;;0.63;0.30;;;7.90;1.00;;;;;;5156283;27;20417;-52
2023/10/16 00:03:01;;;;;;;0.75;0.40;;;7.90;59.20;;;;;;5156471;27;20424;-52
2023/10/16 00:05:32;;;;;;;0.60;0.30;;;8.10;99.90;;;;;;5157254;27;20426;-52
2023/10/16 00:08:05;;;;;;;0.70;0.30;;;8.20;1.00;;;;;;5157418;27;20409;-55
2023/10/16 00:10:33;;;;;;;0.60;0.40;;;8.20;99.90;;;;;;5157617;27;20424;-54
2023/10/16 00:13:04;;;;;;;0.70;0.30;;;8.40;1.00;;;;;;5157432;27;20501;-54
2023/10/16 00:15:40;;;;;;;0.60;0.30;;;8.40;99.90;;;;;;5157638;27;20500;-53
2023/10/16 00:18:13;;;;;;;0.50;0.30;;;8.30;1.00;;;;;;5157159;27;20425;-50
2023/10/16 00:20:42;;;;;;;0.75;0.30;;;8.40;99.90;;;;;;5157084;27;20473;-54
2023/10/16 00:23:11;;;;;;;0.80;0.35;;;8.50;55.70;;;;;;5156184;27;20448;-52
2023/10/16 00:25:39;;;;;;;0.50;0.30;;;8.40;1.00;;;;;;5155749;27;20496;-55
2023/10/16 00:28:08;;;;;;;0.70;0.30;;;8.20;1.00;;;;;;5157065;27;20492;-56
2023/10/16 00:30:36;;;;;;;0.65;0.40;;;7.80;1.00;;;;;;5157107;27;20424;-51
2023/10/16 00:33:04;;;;;;;0.73;0.38;;;7.70;99.90;;;;;;5156914;27;20424;-56
2023/10/16 00:35:32;;;;;;;0.60;0.30;;;7.60;21.80;;;;;;5156499;27;20404;-52
2023/10/16 00:38:02;;;;;;;1.00;0.30;;;7.50;1.00;;;;;;5155909;27;20495;-49
2023/10/16 00:40:32;;;;;;;0.70;0.30;;;7.70;99.90;;;;;;5155624;27;20420;-51
2023/10/16 00:43:10;;;;;;;0.50;0.20;;;7.80;1.00;;;;;;5155684;27;20727;-53
2023/10/16 00:45:48;;;;;;;1.10;0.30;;;7.90;1.00;;;;;;5154904;27;20508;-55
2023/10/16 00:48:17;;;;;;;0.50;0.30;;;7.90;99.90;;;;;;5154201;27;20694;-52
2023/10/16 00:50:48;;;;;;;1.67;0.30;;;7.70;1.00;;;;;;5154550;27;20420;-53
2023/10/16 00:53:20;;;;;;;0.60;0.30;;;7.80;99.90;;;;;;5155479;27;20758;-52
2023/10/16 00:55:48;;;;;;;0.80;0.30;;;8.10;1.00;;;;;;5156383;27;20491;-52
2023/10/16 00:58:15;;;;;;;1.88;0.40;;;8.30;99.90;;;;;;5156066;27;20771;-52
2023/10/16 01:00:46;;;;;;;1.20;0.30;;;8.40;99.90;;;;;;5156958;27;20416;-50
2023/10/16 01:03:14;;;;;;;0.52;0.30;;;8.50;1.00;;;;;;5156634;27;20413;-53
2023/10/16 01:05:42;;;;;;;0.60;0.30;;;8.50;1.00;;;;;;5154842;27;20413;-49
2023/10/16 01:08:10;;;;;;;0.80;0.38;;;8.50;1.00;;;;;;5155473;27;20831;-54
2023/10/16 01:10:40;;;;;;;1.10;0.25;;;8.50;1.00;;;;;;5156408;27;20467;-56
2023/10/16 01:13:12;;;;;;;0.68;0.30;;;8.40;1.00;;;;;;5156530;27;20460;-54
2023/10/16 01:15:43;;;;;;;1.20;0.20;;;8.30;1.00;;;;;;5154291;27;20409;-48
2023/10/16 01:18:14;;;;;;;0.65;0.30;;;8.30;1.00;;;;;;5155463;27;20886;-54
2023/10/16 01:20:46;;;;;;;0.50;0.30;;;8.30;1.00;;;;;;5156571;27;20481;-49
2023/10/16 01:23:16;;;;;;;0.50;0.30;;;8.20;1.00;;;;;;5155925;27;20423;-51
2023/10/16 01:25:46;;;;;;;0.60;0.30;;;8.20;1.00;;;;;;5156202;27;20405;-52
2023/10/16 01:28:15;;;;;;;0.50;0.30;;;8.10;48.30;;;;;;5156599;27;20922;-53
2023/10/16 01:30:43;;;;;;;0.52;0.20;;;8.10;57.50;;;;;;5156008;27;20421;-55
2023/10/16 01:33:10;;;;;;;0.60;0.30;;;8.00;99.90;;;;;;5155926;27;20470;-52
2023/10/16 01:35:37;;;;;;;0.60;0.20;;;8.10;52.50;;;;;;5156032;27;20502;-54
2023/10/16 01:38:14;;;;;;;0.80;0.30;;;8.00;1.00;;;;;;5156393;27;20765;-54
2023/10/16 01:41:03;;;;;;;0.40;0.20;;;7.90;1.00;;;;;;5156262;27;20428;-54
2023/10/16 01:43:31;;;;;;;0.70;0.40;;;7.90;99.90;;;;;;5156240;27;20720;-53
2023/10/16 01:46:02;;;;;;;0.60;0.30;;;8.00;99.90;;;;;;5157179;27;20424;-50
2023/10/16 01:48:29;;;;;;;0.60;0.30;;;8.00;97.00;;;;;;5160241;27;20416;-52
2023/10/16 01:50:56;;;;;;;0.70;0.30;;;8.00;99.90;;;;;;5160266;27;20452;-53
2023/10/16 01:53:25;;;;;;;0.50;0.30;;;8.10;34.30;;;;;;5160231;27;20473;-53
2023/10/16 01:55:55;;;;;;;0.50;0.30;;;7.90;1.00;;;;;;5159399;27;20457;-53
2023/10/16 01:58:30;;;;;;;0.50;0.20;;;7.70;99.90;;;;;;5159055;27;20412;-50
2023/10/16 02:00:57;;;;;;;1.05;0.20;;;7.70;99.90;;;;;;5159964;27;20880;-52
2023/10/16 02:03:25;;;;;;;0.45;0.20;;;7.80;99.90;;;;;;5159831;27;20425;-56
2023/10/16 02:05:53;;;;;;;0.40;0.20;;;7.80;99.90;;;;;;5158653;27;20747;-51
2023/10/16 02:08:21;;;;;;;0.80;0.20;;;7.70;99.90;;;;;;5159643;27;20463;-49
2023/10/16 02:10:49;;;;;;;0.50;0.30;;;7.70;99.90;;;;;;5159509;27;20453;-49
2023/10/16 02:13:18;;;;;;;1.30;0.30;;;7.80;99.90;;;;;;5160167;27;20890;-49
2023/10/16 02:15:45;;;;;;;0.60;0.30;;;7.70;99.90;;;;;;5159729;27;20840;-54
2023/10/16 02:18:22;;;;;;;0.63;0.30;;;7.70;95.30;;;;;;5159244;27;20469;-52
2023/10/16 02:20:50;;;;;;;0.70;0.30;;;7.70;90.20;;;;;;5159811;27;20431;-52
2023/10/16 02:23:18;;;;;;;0.50;0.30;;;7.70;91.50;;;;;;5158773;27;20473;-53
2023/10/16 02:25:46;;;;;;;0.50;0.30;;;7.80;99.90;;;;;;5159289;27;20408;-55
2023/10/16 02:28:15;;;;;;;0.60;0.20;;;7.80;99.90;;;;;;5158649;27;20728;-54
2023/10/16 02:30:46;;;;;;;0.60;0.30;;;7.80;99.90;;;;;;5159465;27;20823;-54
2023/10/16 02:33:18;;;;;;;0.85;0.28;;;7.60;99.90;;;;;;5158977;27;20867;-53
2023/10/16 02:35:49;;;;;;;0.40;0.20;;;7.60;99.90;;;;;;5159210;27;20891;-54
2023/10/16 02:38:27;;;;;;;0.70;0.30;;;7.70;1.00;;;;;;5157922;27;20438;-54
2023/10/16 02:41:00;;;;;;;1.05;0.30;;;7.70;99.90;;;;;;5158746;27;20409;-55
2023/10/16 02:43:27;;;;;;;0.70;0.30;;;7.70;99.90;;;;;;5159399;27;20428;-56
2023/10/16 02:45:56;;;;;;;1.10;0.30;;;7.70;99.90;;;;;;5159377;27;20413;-56
2023/10/16 02:48:24;;;;;;;1.00;0.28;;;7.70;99.90;;;;;;5159039;27;20461;-53
2023/10/16 02:50:53;;;;;;;0.50;0.30;;;7.60;99.90;;;;;;5157258;27;20725;-53
2023/10/16 02:53:21;;;;;;;1.20;0.30;;;7.60;99.90;;;;;;5158925;27;20420;-53
2023/10/16 02:55:52;;;;;;;0.97;0.40;;;7.50;99.90;;;;;;5159117;27;20501;-56
2023/10/16 02:58:22;;;;;;;1.10;0.30;;;7.40;99.90;;;;;;5157746;27;20455;-55
2023/10/16 03:00:55;;;;;;;0.70;0.30;;;7.40;1.00;;;;;;5158756;27;20871;-54
2023/10/16 03:03:26;;;;;;;1.20;0.30;;;7.40;1.00;;;;;;5158901;27;20440;-52
2023/10/16 03:05:55;;;;;;;0.80;0.30;;;7.40;1.00;;;;;;5158974;27;20423;-51
2023/10/16 03:08:29;;;;;;;0.50;0.30;;;7.30;99.90;;;;;;5158342;27;20413;-53
2023/10/16 03:10:56;;;;;;;0.50;0.30;;;7.10;1.00;;;;;;5158518;27;20412;-50
2023/10/16 03:13:25;;;;;;;0.50;0.30;;;7.10;27.60;;;;;;5157949;27;20449;-55
2023/10/16 03:15:59;;;;;;;1.40;0.30;;;7.20;19.30;;;;;;5158278;27;20429;-53
2023/10/16 03:18:28;;;;;;;0.50;0.20;;;7.20;1.00;;;;;;5158657;27;20416;-55
2023/10/16 03:21:01;;;;;;;0.60;0.30;;;7.20;1.00;;;;;;5156686;27;20751;-53
2023/10/16 03:23:28;;;;;;;0.60;0.30;;;7.20;1.00;;;;;;5156129;27;20424;-52
2023/10/16 03:25:56;;;;;;;0.70;0.40;;;7.10;1.00;;;;;;5156776;27;20408;-52
2023/10/16 03:28:23;;;;;;;0.60;0.30;;;7.20;99.90;;;;;;5156467;27;20620;-49
2023/10/16 03:30:51;;;;;;;1.00;0.40;;;7.10;1.00;;;;;;5156823;27;20575;-54
2023/10/16 03:33:18;;;;;;;0.60;0.30;;;7.00;99.90;;;;;;5157239;27;20421;-56
2023/10/16 03:35:49;;;;;;;0.90;0.30;;;7.10;99.90;;;;;;5158087;27;20478;-48
2023/10/16 03:38:24;;;;;;;0.60;0.30;;;7.10;1.00;;;;;;5157949;27;20669;-51
2023/10/16 03:40:52;;;;;;;0.80;0.40;;;7.20;1.00;;;;;;5155608;27;20735;-49
2023/10/16 03:43:22;;;;;;;0.70;0.40;;;7.10;73.00;;;;;;5155472;27;20515;-52
2023/10/16 03:45:49;;;;;;;1.20;0.40;;;7.00;99.90;;;;;;5154456;27;20465;-51
2023/10/16 03:48:17;;;;;;;0.77;0.40;;;6.90;25.20;;;;;;5153911;27;20427;-52
2023/10/16 03:50:44;;;;;;;1.30;0.40;;;6.90;99.90;;;;;;5151568;27;20843;-54
2023/10/16 03:53:13;;;;;;;0.77;0.40;;;6.90;99.90;;;;;;5151860;27;20435;-51
2023/10/16 03:55:48;;;;;;;0.80;0.50;;;6.90;99.90;;;;;;5152200;27;20425;-52
2023/10/16 03:58:16;;;;;;;0.82;0.40;;;6.90;99.90;;;;;;5153652;27;20477;-49
2023/10/16 04:00:53;;;;;;;0.70;0.40;;;7.10;1.00;;;;;;5154881;27;20417;-49
2023/10/16 04:03:21;;;;;;;0.60;0.40;;;7.10;99.90;;;;;;5155040;27;20519;-51
2023/10/16 04:05:49;;;;;;;0.80;0.40;;;7.10;1.00;;;;;;5153998;27;20423;-54
2023/10/16 04:08:21;;;;;;;0.80;0.40;;;7.10;1.00;;;;;;5153449;27;20766;-52
2023/10/16 04:10:49;;;;;;;0.80;0.40;;;7.20;99.90;;;;;;5154320;27;20504;-51
2023/10/16 04:13:18;;;;;;;0.70;0.40;;;7.00;22.40;;;;;;5154823;27;20423;-52
2023/10/16 04:16:09;;;;;;;0.80;0.40;;;6.80;1.00;;;;;;5153486;27;20871;-50
2023/10/16 04:18:39;;;;;;;1.80;0.50;;;6.70;99.90;;;;;;5152359;27;20912;-53
2023/10/16 04:23:56;;;;;;;2.60;0.43;;;6.50;99.90;;;;;;5154065;27;20404;-52
2023/10/16 04:26:33;;;;;;;0.73;0.40;;;6.60;1.00;;;;;;5154449;27;20594;-54
2023/10/16 04:31:55;;;;;;;0.70;0.40;;;6.90;1.00;;;;;;5154160;27;20758;-53
2023/10/16 04:34:31;;;;;;;0.70;0.40;;;7.00;1.00;;;;;;5153947;27;20420;-52
2023/10/16 04:43:07;;;;;;;0.80;0.40;;;7.00;99.90;;;;;;5154775;27;20567;-53
2023/10/16 04:45:54;;;;;;;0.60;0.40;;;6.90;1.00;;;;;;5155968;27;20440;-49
2023/10/16 04:51:16;;;;;;;1.10;0.40;;;6.70;99.90;;;;;;5138848;27;20504;-52
2023/10/16 04:53:58;;;;;;;1.00;0.30;;;6.70;1.00;;;;;;5155468;27;20517;-55
2023/10/16 05:02:33;;;;;;;0.60;0.40;;;6.70;1.00;;;;;;5151866;27;20664;-51
2023/10/16 05:05:32;;;;;;;1.23;0.47;;;6.80;1.00;;;;;;5150807;27;20483;-50
2023/10/16 05:07:53;;;;;;;0.70;0.40;;;6.70;99.90;;;;;;5150477;27;20437;-54
2023/10/16 05:10:51;;;;;;;1.00;0.50;;;6.70;1.00;;;;;;5151919;27;20417;-51
2023/10/16 05:13:24;;;;;;;0.80;0.50;;;6.80;99.90;;;;;;5149185;27;20509;-54
2023/10/16 05:19:02;;;;;;;1.80;0.60;;;6.90;99.90;;;;;;5149909;27;20400;-49
2023/10/16 06:16:32;;;;;;;1.63;0.60;;;6.50;1.00;;;;;;5135223;27;20454;-50
2023/10/16 06:19:02;;;;;;;1.20;0.52;;;6.50;1.00;;;;;;5125341;27;20418;-52
2023/10/16 06:21:29;;;;;;;0.90;0.60;;;6.50;1.00;;;;;;5135148;27;20875;-51
2023/10/16 06:23:57;;;;;;;1.10;0.60;;;6.60;1.00;;;;;;5134305;27;20841;-47
2023/10/16 06:26:27;;;;;;;3.00;0.68;;;6.60;1.00;;;;;;5132791;27;20407;-49
2023/10/16 06:28:54;;;;;;;1.60;0.63;;;6.60;99.90;;;;;;5130098;27;20449;-51
2023/10/16 06:31:23;;;;;;;1.50;0.60;;;6.50;1.00;;;;;;5131853;27;20431;-51
2023/10/16 06:33:56;;;;;;;0.90;0.60;;;6.30;1.00;;;;;;5127946;27;20537;-51
2023/10/16 06:36:24;;;;;;;1.60;0.70;;;6.30;1.00;;;;;;5130273;27;20459;-50
2023/10/16 06:38:51;;;;;;;1.13;0.60;;;6.10;1.00;;;;;;5133684;27;20430;-51
2023/10/16 06:41:21;;;;;;;0.90;0.50;;;6.00;1.00;;;;;;5129667;27;20797;-50
2023/10/16 06:43:48;;;;;;;1.10;0.63;;;5.90;1.00;;;;;;5133531;27;20698;-50
2023/10/16 06:46:22;;;;;;;1.90;0.60;;;6.00;99.90;;;;;;5132167;27;21061;-53
2023/10/16 06:48:50;;;;;;;3.57;0.90;;;5.90;99.90;;;;;;5132835;27;20489;-53
2023/10/16 06:51:17;;;;;;;1.80;0.70;;;5.80;99.90;;;;;;5131705;27;20430;-50
2023/10/16 06:53:45;;;;;;;2.22;0.63;;;5.80;99.90;;;;;;5132165;27;20438;-49
2023/10/16 06:56:27;;;;;;;1.30;0.75;;;5.80;99.90;;;;;;5130548;27;21021;-52
2023/10/16 06:58:57;;;;;;;0.90;0.60;;;5.80;99.90;;;;;;5130959;27;20434;-49
2023/10/16 07:01:26;;;;;;;1.60;0.60;;;5.90;1.00;;;;;;5130125;27;20434;-49
2023/10/16 07:03:55;;;;;;;1.10;0.60;;;5.90;99.90;;;;;;5131824;27;20414;-47
2023/10/16 07:06:32;;;;;;;1.50;0.60;;;6.00;99.90;;;;;;5132489;27;20442;-46
2023/10/16 07:09:00;;;;;;;1.10;0.60;;;6.00;99.90;;;;;;5132601;27;20479;-51
2023/10/16 07:11:28;;;;;;;1.00;0.60;;;6.10;99.90;;;;;;5130728;27;20426;-48
2023/10/16 07:13:56;;;;;;;1.30;0.60;;;6.20;99.90;;;;;;5128928;27;21000;-50
2023/10/16 07:16:23;;;;;;;2.38;0.70;;;6.10;51.20;;;;;;5129598;27;20426;-50
2023/10/16 07:18:54;;;;;;;1.40;0.60;;;5.90;99.90;;;;;;5129514;27;20829;-47
2023/10/16 07:21:21;;;;;;;1.88;0.70;;;5.90;99.90;;;;;;5123660;27;20470;-47
2023/10/16 07:23:48;;;;;;;2.10;0.70;;;5.90;1.00;;;;;;5130120;27;20448;-47
2023/10/16 07:26:17;;;;;;;1.80;0.60;;;5.90;99.90;;;;;;5129530;27;20795;-50
2023/10/16 07:28:48;;;;;;;2.10;0.75;;;5.80;1.00;;;;;;5132293;27;20468;-48
2023/10/16 07:31:17;;;;;;;1.17;0.60;;;5.80;1.00;;;;;;5133538;27;20517;-47
2023/10/16 07:33:50;;;;;;;2.40;0.80;;;5.90;1.00;;;;;;5131813;27;20426;-51
2023/10/16 07:36:18;;;;;;;1.70;0.70;;;6.10;1.00;;;;;;5133386;27;20426;-49
2023/10/16 07:38:46;;;;;;;2.83;0.70;;;6.30;1.00;;;;;;5132433;27;20438;-51
2023/10/16 07:41:18;;;;;;;1.67;0.70;;;7.10;1.00;;;;;;5129767;27;20414;-51
2023/10/16 07:43:46;;;;;;;2.90;0.70;;;7.30;1.00;;;;;;5130446;27;20437;-50
2023/10/16 07:46:29;;;;;;;1.40;0.60;;;7.20;1.00;;;;;;5130196;27;20440;-52
2023/10/16 07:49:01;;;;;;;1.20;0.70;;;6.90;1.00;;;;;;5132302;27;21064;-51
2023/10/16 07:51:29;;;;;;;1.30;0.80;;;6.60;99.90;;;;;;5131391;27;20426;-48
2023/10/16 07:54:00;;;;;;;2.10;0.80;;;6.30;99.90;;;;;;5132246;27;20518;-53
2023/10/16 07:59:54;;;;;;;2.40;0.90;;;6.20;1.00;;;;;;5128127;27;20443;-49
2023/10/16 08:02:21;;;;;;;1.10;0.70;;;6.20;1.00;;;;;;5132469;27;20454;-51
2023/10/16 08:04:51;;;;;;;1.10;0.80;;;6.50;1.00;;;;;;5130849;27;20434;-51
2023/10/16 08:07:19;;;;;;;2.25;1.00;;;6.60;99.90;;;;;;5132430;27;21018;-60
2023/10/16 08:09:48;;;;;;;2.30;0.90;;;6.70;99.90;;;;;;5134015;27;20516;-60
2023/10/16 08:12:19;;;;;;;1.65;0.90;;;6.60;99.90;;;;;;5130722;27;20448;-60
2023/10/16 08:14:47;;;;;;;1.80;0.80;;;6.60;99.90;;;;;;5128843;27;20751;-61
2023/10/16 08:17:17;;;;;;;2.47;1.20;;;6.80;99.90;;;;;;5123687;27;20480;-64
2023/10/16 08:19:44;;;;;;;1.88;0.93;;;7.00;99.90;;;;;;5131249;27;20434;-61
2023/10/16 08:22:14;;;;;;;2.50;0.82;;;7.10;1.00;;;;;;5124084;27;20437;-60
2023/10/16 08:24:44;;;;;;;1.50;0.90;;;7.20;99.90;;;;;;5131196;27;20525;-60
2023/10/16 08:27:19;;;;;;;1.63;0.80;;;7.90;1.00;;;;;;5131942;27;20495;-61
2023/10/16 08:29:54;;;;;;;1.90;0.80;;;8.30;1.00;;;;;;5132728;27;20914;-62
2023/10/16 08:35:14;;;;;;;4.60;0.90;;;8.40;99.90;;;;;;5128628;27;20888;-62
2023/10/16 08:37:43;;;;;;;2.42;0.90;;;8.50;99.90;;;;;;5128968;27;20433;-59
2023/10/16 08:40:19;;;;;;;2.03;0.80;;;8.80;99.90;;;;;;5130146;27;20525;-62
2023/10/16 08:43:00;;;;;;;3.30;0.90;;;9.00;1.00;;;;;;5131135;27;20555;-60
2023/10/16 08:45:28;;;;;;;2.10;0.90;;;9.20;99.90;;;;;;5129984;27;20441;-61
2023/10/16 08:47:56;;;;;;;2.10;0.80;;;8.80;99.90;;;;;;5110669;28;20416;-61
2023/10/16 08:50:40;;;;;;;1.40;0.80;;;8.60;1.00;;;;;;5107662;28;20427;-61
2023/10/16 08:53:30;;;;;;;1.60;0.90;;;8.40;1.00;;;;;;5121675;27;20775;-62
2023/10/16 08:55:58;;;;;;;1.80;0.80;;;8.30;99.90;;;;;;5128929;27;20449;-61
2023/10/16 08:58:26;;;;;;;1.63;0.80;;;8.60;1.00;;;;;;5127059;27;20721;-61
2023/10/16 09:00:57;;;;;;;4.10;0.80;;;8.70;1.00;;;;;;5133706;27;20425;-62
2023/10/16 09:03:26;;;;;;;1.10;0.70;;;8.70;1.00;;;;;;5121258;28;20901;-62
2023/10/16 09:05:53;;;;;;;1.10;0.80;;;8.90;3.20;;;;;;5112358;28;20428;-62
2023/10/16 09:08:21;;;;;;;1.17;0.70;;;9.20;1.00;;;;;;5118098;27;20483;-63
2023/10/16 09:10:49;;;;;;;1.80;0.80;;;9.90;99.90;;;;;;5131564;28;20513;-61
2023/10/16 09:13:17;;;;;;;1.23;0.70;;;10.10;1.00;;;;;;5133068;27;20437;-61
2023/10/16 09:15:46;;;;;;;1.27;0.80;;;10.40;1.00;;;;;;5119421;28;20489;-62
2023/10/16 09:18:14;;;;;;;1.20;0.70;;;10.40;99.90;;;;;;5126933;28;20430;-61
2023/10/16 09:20:42;;;;;;;1.80;0.80;;;10.20;99.90;;;;;;5133929;27;20425;-60
2023/10/16 09:23:13;;;;;;;1.45;0.82;;;10.00;99.90;;;;;;5132394;27;20430;-61
2023/10/16 09:25:45;;;;;;;1.90;0.80;;;9.90;1.00;;;;;;5130705;27;20418;-60
2023/10/16 09:28:19;;;;;;;1.10;0.70;;;9.70;1.00;;;;;;5130004;27;20422;-60
2023/10/16 09:30:49;;;;;;;1.60;0.70;;;9.70;1.00;;;;;;5124941;27;20457;-59
2023/10/16 09:33:16;;;;;;;1.90;0.80;;;9.70;1.00;;;;;;5131056;27;20655;-61
2023/10/16 09:35:46;;;;;;;1.80;0.70;;;9.80;99.90;;;;;;5131800;27;20430;-62
2023/10/16 09:38:18;;;;;;;1.20;0.80;;;9.70;1.00;;;;;;5130265;27;20909;-61
2023/10/16 09:40:58;;;;;;;2.00;0.70;;;9.60;1.00;;;;;;5115843;28;20432;-62
2023/10/16 09:43:27;;;;;;;1.40;0.80;;;9.60;1.00;;;;;;5120822;27;20453;-62
2023/10/16 09:48:37;;;;;;;2.35;0.80;;;9.60;1.00;;;;;;5130214;27;20532;-61
2023/10/16 09:51:08;;;;;;;2.50;0.80;;;9.70;1.00;;;;;;5125407;27;20436;-60
2023/10/16 09:53:35;;;;;;;1.48;0.90;;;9.80;1.00;;;;;;5129854;27;20438;-60
2023/10/16 09:56:09;;;;;;;3.50;0.90;;;9.80;1.00;;;;;;5135997;27;20460;-59
2023/10/16 09:58:40;;;;;;;2.40;0.70;;;9.90;1.00;;;;;;5134577;27;20440;-59
2023/10/16 10:01:09;;;;;;;1.58;0.70;;;9.90;1.00;;;;;;5121904;27;20430;-59
2023/10/16 10:03:38;;;;;;;2.03;0.70;;;10.00;1.00;;;;;;5133763;27;20430;-60
2023/10/16 10:06:12;;;;;;;1.20;0.70;;;10.10;99.90;;;;;;5136650;27;20533;-60
2023/10/16 10:09:20;;;;;;;2.22;0.80;;;10.10;99.90;;;;;;5126971;27;20435;-60
2023/10/16 10:11:58;;;;;;;2.40;0.70;;;10.10;99.90;;;;;;5126082;27;20503;-60
2023/10/16 10:14:34;;;;;;;5.72;2.20;;;10.20;99.90;;;;;;5130009;27;20430;-60
2023/10/16 10:17:04;;;;;;;1.70;0.70;;;10.30;99.90;;;;;;5135269;27;20861;-60
2023/10/16 10:19:39;;;;;;;1.70;0.70;;;10.50;99.90;;;;;;5124447;27;20505;-59
2023/10/16 10:22:17;;;;;;;1.08;0.50;;;10.60;99.90;;;;;;5136558;27;20431;-60
2023/10/16 10:24:51;;;;;;;1.60;0.65;;;10.70;99.90;;;;;;5129600;27;20466;-60
2023/10/16 10:27:19;;;;;;;2.20;0.80;;;10.90;99.90;;;;;;5117852;27;20572;-60
2023/10/16 10:29:48;;;;;;;1.00;0.60;;;11.10;99.90;;;;;;5135966;27;20513;-59
2023/10/16 10:32:15;;;;;;;1.30;0.60;;;11.30;99.90;;;;;;5137657;27;20430;-60
2023/10/16 10:34:43;;;;;;;1.15;0.60;;;11.50;95.10;;;;;;5137075;27;20475;-60
2023/10/16 10:37:45;;;;;;;1.20;0.60;;;11.50;29.10;;;;;;5130318;27;20434;-59
2023/10/16 10:40:15;;;;;;;1.17;0.50;;;11.60;3.60;;;;;;5133688;27;20493;-60
2023/10/16 10:42:45;;;;;;;1.20;0.50;;;11.90;9.80;;;;;;5130008;27;20426;-60
2023/10/16 10:45:23;;;;;;;1.80;0.60;;;12.40;1.00;;;;;;5136353;27;20411;-61
2023/10/16 10:47:54;;;;;;;1.10;0.50;;;12.70;1.00;;;;;;5138148;27;20440;-60
2023/10/16 10:50:22;;;;;;;0.80;0.55;;;12.90;1.00;;;;;;5133808;27;20529;-61
2023/10/16 10:52:50;;;;;;;1.10;0.60;;;13.10;1.00;;;;;;5136311;27;20418;-61
2023/10/16 10:55:21;;;;;;;0.70;0.50;;;13.10;1.00;;;;;;5136500;27;20521;-61
2023/10/16 10:57:58;;;;;;;1.20;0.50;;;13.20;1.00;;;;;;5135253;27;20415;-61
2023/10/16 11:03:10;;;;;;;0.80;0.40;;;12.90;1.00;;;;;;5132989;27;20658;-62
2023/10/16 11:05:42;;;;;;;0.70;0.30;;;12.50;1.00;;;;;;5132486;27;20862;-61
2023/10/16 11:08:22;;;;;;;1.10;0.40;;;12.50;1.00;;;;;;5134982;27;20468;-61
2023/10/16 11:10:50;;;;;;;0.90;0.30;;;12.50;1.00;;;;;;5136424;27;20428;-59
2023/10/16 11:13:21;;;;;;;0.77;0.40;;;12.80;1.00;;;;;;5135370;27;20414;-60
2023/10/16 11:15:52;;;;;;;0.60;0.40;;;13.00;1.00;;;;;;5135266;27;20446;-60
2023/10/16 11:18:20;;;;;;;0.90;0.30;;;12.70;1.00;;;;;;5116381;27;20845;-60
2023/10/16 11:20:49;;;;;;;1.15;0.40;;;12.90;1.00;;;;;;5133648;27;20491;-61
2023/10/16 11:23:17;;;;;;;14.23;7.63;;;13.10;1.00;;;;;;5131974;27;20430;-61
2023/10/16 11:25:50;;;;;;;1.10;0.50;;;13.00;1.00;;;;;;5133306;27;20428;-61
2023/10/16 11:28:21;;;;;;;0.70;0.30;;;13.00;1.00;;;;;;5133239;27;20442;-61
2023/10/16 11:30:53;;;;;;;2.22;0.40;;;13.30;1.00;;;;;;5134089;27;20499;-61
2023/10/16 11:33:28;;;;;;;1.40;0.70;;;13.60;1.00;;;;;;5127118;27;20545;-61
2023/10/16 11:36:02;;;;;;;0.93;0.40;;;13.80;1.00;;;;;;5133587;27;20466;-61
2023/10/16 11:38:30;;;;;;;0.60;0.40;;;13.90;1.00;;;;;;5124252;27;20437;-61
2023/10/16 11:41:04;;;;;;;0.77;0.38;;;13.30;1.00;;;;;;5131548;27;20517;-60
2023/10/16 11:43:37;;;;;;;0.90;0.40;;;13.60;1.00;;;;;;5124212;27;20440;-59
2023/10/16 11:46:20;;;;;;;0.50;0.30;;;13.70;1.00;;;;;;5126874;27;20494;-58
2023/10/16 11:48:49;;;;;;;1.10;0.30;;;13.60;1.00;;;;;;5127997;27;20525;-57
2023/10/16 11:51:18;;;;;;;0.70;0.30;;;13.60;1.00;;;;;;5132803;27;20877;-58
2023/10/16 11:53:47;;;;;;;0.50;0.30;;;13.60;1.00;;;;;;5125709;27;20869;-58
2023/10/16 11:56:18;;;;;;;0.50;0.30;;;13.50;1.00;;;;;;5135560;27;20438;-58
2023/10/16 11:58:47;;;;;;;0.40;0.20;;;13.50;1.00;;;;;;5137015;27;20521;-58
2023/10/16 12:01:14;;;;;;;0.60;0.30;;;13.70;1.00;;;;;;5136371;27;20426;-57
2023/10/16 12:03:41;;;;;;;0.53;0.30;;;13.60;1.00;;;;;;5136544;27;20482;-58
2023/10/16 12:06:13;;;;;;;1.00;0.30;;;13.40;1.00;;;;;;5135266;27;20488;-58
2023/10/16 12:08:42;;;;;;;0.80;0.30;;;13.10;1.00;;;;;;5135015;27;20426;-57
2023/10/16 12:11:09;;;;;;;0.70;0.30;;;13.20;1.00;;;;;;5132795;27;20818;-58
2023/10/16 12:13:37;;;;;;;0.70;0.40;;;13.40;1.00;;;;;;5133561;27;20426;-57
2023/10/16 12:16:06;;;;;;;0.50;0.30;;;13.50;1.00;;;;;;5133121;27;20491;-57
2023/10/16 12:18:33;;;;;;;1.50;0.38;;;13.60;1.00;;;;;;5130968;27;20469;-57
2023/10/16 12:21:05;;;;;;;0.63;0.40;;;13.50;1.00;;;;;;5135295;27;20410;-55
2023/10/16 12:23:37;;;;;;;0.90;0.43;;;13.30;1.00;;;;;;5135036;27;20513;-58
2023/10/16 12:26:04;;;;;;;1.10;0.30;;;13.10;1.00;;;;;;5132775;27;20430;-56
2023/10/16 12:28:32;;;;;;;0.60;0.40;;;13.10;1.00;;;;;;5133429;27;20419;-56
2023/10/16 12:31:02;;;;;;;1.70;0.30;;;13.20;1.00;;;;;;5133960;27;20434;-56
2023/10/16 12:33:31;;;;;;;0.80;0.40;;;13.30;1.00;;;;;;5133488;27;20418;-56
2023/10/16 12:36:01;;;;;;;0.70;0.30;;;13.30;1.00;;;;;;5135593;27;20454;-56
2023/10/16 12:38:29;;;;;;;0.68;0.30;;;13.40;1.00;;;;;;5133622;27;20426;-56
2023/10/16 12:40:58;;;;;;;0.50;0.30;;;13.40;1.00;;;;;;5133760;27;20425;-57
2023/10/16 12:43:27;;;;;;;1.50;0.30;;;13.50;1.00;;;;;;5134347;27;20479;-57
2023/10/16 12:45:56;;;;;;;1.00;0.30;;;13.30;1.00;;;;;;5133833;27;20483;-57
2023/10/16 12:48:24;;;;;;;0.70;0.40;;;13.10;1.00;;;;;;5133411;27;20837;-57
2023/10/16 12:50:53;;;;;;;0.80;0.30;;;13.20;1.00;;;;;;5133524;27;20434;-57
2023/10/16 12:53:20;;;;;;;0.60;0.40;;;13.30;1.00;;;;;;5115677;28;20428;-57
2023/10/16 12:55:51;;;;;;;0.60;0.30;;;13.40;1.00;;;;;;5115146;28;20427;-57
2023/10/16 12:58:19;;;;;;;0.80;0.30;;;13.40;1.00;;;;;;5114936;28;20470;-56
2023/10/16 13:00:50;;;;;;;0.70;0.30;;;13.30;1.00;;;;;;5112638;28;20880;-57
2023/10/16 13:03:19;;;;;;;0.90;0.30;;;13.20;1.00;;;;;;5113704;28;20428;-57
2023/10/16 13:05:46;;;;;;;0.60;0.30;;;13.20;1.00;;;;;;5114632;28;20456;-55
2023/10/16 13:08:16;;;;;;;0.60;0.30;;;13.10;1.00;;;;;;5112428;28;20424;-58
2023/10/16 13:10:48;;;;;;;0.82;0.40;;;13.10;1.00;;;;;;5124217;27;20506;-54
2023/10/16 13:13:19;;;;;;;3.90;1.20;;;13.00;1.00;;;;;;5133445;27;20415;-53
2023/10/16 13:15:51;;;;;;;4.30;1.48;;;13.10;1.00;;;;;;5133619;28;20417;-55
2023/10/16 13:18:26;;;;;;;1.40;0.40;;;13.20;1.00;;;;;;5133067;27;20463;-55
2023/10/16 13:20:57;;;;;;;0.70;0.40;;;13.20;1.00;;;;;;5128382;27;20866;-56
2023/10/16 13:23:26;;;;;;;0.60;0.30;;;13.30;1.00;;;;;;5115611;28;20526;-55
2023/10/16 13:25:56;;;;;;;0.85;0.30;;;13.30;1.00;;;;;;5129982;27;20434;-54
2023/10/16 13:28:24;;;;;;;0.40;0.22;;;13.40;1.00;;;;;;5136587;27;20625;-54
2023/10/16 13:30:52;;;;;;;0.60;0.30;;;13.40;1.00;;;;;;5137106;27;20502;-55
2023/10/16 13:33:19;;;;;;;2.90;0.40;;;13.30;1.00;;;;;;5137206;27;20861;-56
2023/10/16 13:35:47;;;;;;;0.60;0.40;;;13.20;1.00;;;;;;5136421;27;20422;-57
2023/10/16 13:38:14;;;;;;;0.50;0.30;;;13.20;1.00;;;;;;5135175;27;20422;-54
2023/10/16 13:40:43;;;;;;;0.50;0.30;;;13.20;1.00;;;;;;5135551;27;20422;-56
2023/10/16 13:43:13;;;;;;;0.60;0.30;;;13.30;1.00;;;;;;5135577;27;20431;-56
2023/10/16 13:45:40;;;;;;;0.60;0.30;;;13.30;1.00;;;;;;5136519;27;20883;-56
2023/10/16 13:48:09;;;;;;;0.70;0.30;;;13.30;1.00;;;;;;5135925;27;20475;-56
2023/10/16 13:50:37;;;;;;;0.60;0.30;;;13.30;1.00;;;;;;5137022;27;20455;-55
2023/10/16 13:53:08;;;;;;;0.60;0.30;;;13.30;1.00;;;;;;5136656;27;20422;-54
2023/10/16 13:55:35;;;;;;;0.60;0.30;;;13.30;1.00;;;;;;5136718;27;20429;-56
2023/10/16 13:58:05;;;;;;;1.30;0.30;;;13.30;1.00;;;;;;5135706;27;20419;-56
2023/10/16 14:00:35;;;;;;;0.60;0.30;;;13.30;1.00;;;;;;5135016;27;20475;-63
2023/10/16 14:03:07;;;;;;;0.80;0.30;;;13.30;1.00;;;;;;5133227;27;20536;-65
2023/10/16 14:05:40;;;;;;;1.00;0.30;;;13.20;1.00;;;;;;5135448;27;20549;-63
2023/10/16 14:08:10;;;;;;;0.60;0.30;;;13.20;1.00;;;;;;5137408;27;20418;-63
2023/10/16 14:10:45;;;;;;;0.52;0.30;;;13.20;1.00;;;;;;5134426;27;20708;-53
2023/10/16 14:13:19;;;;;;;0.70;0.30;;;13.10;1.00;;;;;;5130705;27;20427;-52
2023/10/16 14:15:47;;;;;;;0.52;0.28;;;13.10;1.00;;;;;;5134816;27;20775;-47
2023/10/16 14:18:20;;;;;;;1.65;0.40;;;13.10;1.00;;;;;;5134523;27;20476;-50
2023/10/16 14:20:48;;;;;;;0.40;0.20;;;13.10;1.00;;;;;;5128863;27;20513;-50
2023/10/16 14:23:17;;;;;;;0.60;0.30;;;13.10;1.00;;;;;;5131292;27;20484;-47
2023/10/16 14:25:49;;;;;;;0.40;0.20;;;13.20;1.00;;;;;;5131036;27;20495;-52
2023/10/16 14:28:25;;;;;;;1.20;0.30;;;13.20;1.00;;;;;;5133337;27;20419;-49
2023/10/16 14:30:54;;;;;;;0.60;0.30;;;13.10;1.00;;;;;;5133419;27;20513;-52
2023/10/16 14:33:22;;;;;;;0.70;0.40;;;13.10;1.00;;;;;;5130601;27;20499;-51
2023/10/16 14:35:50;;;;;;;2.20;0.30;;;13.10;1.00;;;;;;5133195;27;20457;-52
2023/10/16 14:38:19;;;;;;;0.70;0.30;;;13.10;1.00;;;;;;5133290;27;21078;-53
2023/10/16 14:40:46;;;;;;;0.88;0.20;;;13.00;1.00;;;;;;5134178;27;20480;-51
2023/10/16 14:43:15;;;;;;;0.60;0.30;;;13.00;1.00;;;;;;5132458;27;20511;-54
2023/10/16 14:45:48;;;;;;;0.50;0.30;;;13.00;1.00;;;;;;5130339;27;20987;-47
2023/10/16 14:48:16;;;;;;;0.60;0.30;;;12.90;1.00;;;;;;5126751;27;20866;-53